createdAt,value
2023-02-26T00:03:34.703Z,94.60
2023-02-26T00:08:39.393Z,94.00
2023-02-26T00:13:43.078Z,93.80
2023-02-26T00:18:45.574Z,93.80
2023-02-26T00:23:47.615Z,94.00
2023-02-26T00:28:50.115Z,93.80
2023-02-26T00:33:53.654Z,93.90
2023-02-26T00:38:59.487Z,93.70
2023-02-26T00:44:01.581Z,93.60
2023-02-26T00:49:23.851Z,93.30
2023-02-26T00:54:27.963Z,93.20
2023-02-26T00:59:29.898Z,93.10
2023-02-26T01:04:31.926Z,93.20
2023-02-26T01:09:35.565Z,93.30
2023-02-26T01:14:38.483Z,93.30
2023-02-26T01:20:10.241Z,93.60
2023-02-26T01:25:16.643Z,93.60
2023-02-26T01:30:19.970Z,93.80
2023-02-26T01:35:32.634Z,93.90
2023-02-26T01:41:07.967Z,93.90
2023-02-26T01:46:23.520Z,93.80
2023-02-26T01:51:46.002Z,93.70
2023-02-26T01:56:51.798Z,93.60
2023-02-26T02:01:55.126Z,93.50
2023-02-26T02:06:57.051Z,93.30
2023-02-26T02:12:04.981Z,93.20
2023-02-26T02:17:35.493Z,93.10
2023-02-26T02:23:12.282Z,93.10
2023-02-26T02:28:51.490Z,93.10
2023-02-26T02:34:06.868Z,93.20
2023-02-26T02:39:13.990Z,93.10
2023-02-26T02:44:18.431Z,93.20
2023-02-26T02:50:02.301Z,93.20
2023-02-26T02:55:09.744Z,92.90
2023-02-26T03:00:12.965Z,92.60
2023-02-26T03:05:14.975Z,92.60
2023-02-26T03:10:17.927Z,92.70
2023-02-26T03:15:44.829Z,92.50
2023-02-26T03:21:03.799Z,92.40
2023-02-26T03:26:20.098Z,92.30
2023-02-26T03:31:29.476Z,92.10
2023-02-26T03:36:37.458Z,92.10
2023-02-26T03:41:57.114Z,92.30
2023-02-26T03:47:01.765Z,92.10
2023-02-26T03:52:04.816Z,92.20
2023-02-26T03:57:06.719Z,92.40
2023-02-26T04:02:14.176Z,92.70
2023-02-26T04:07:17.487Z,93.00
2023-02-26T04:12:22.312Z,93.40
2023-02-26T04:17:24.150Z,93.90
2023-02-26T04:22:26.183Z,94.30
2023-02-26T04:27:28.058Z,94.80
2023-02-26T04:32:31.147Z,95.10
2023-02-26T04:37:33.069Z,95.30
2023-02-26T04:42:34.915Z,95.90
2023-02-26T04:47:36.929Z,96.60
2023-02-26T04:52:38.748Z,97.10
2023-02-26T04:57:40.740Z,97.60
2023-02-26T05:02:42.596Z,98.20
2023-02-26T05:07:44.449Z,98.50
2023-02-26T05:12:46.331Z,98.90
2023-02-26T05:17:48.187Z,99.40
2023-02-26T05:22:50.026Z,99.80
2023-02-26T05:27:51.964Z,99.90
2023-02-26T05:32:54.814Z,99.90
2023-02-26T05:37:56.686Z,99.90
2023-02-26T05:42:58.508Z,99.90
2023-02-26T05:48:01.099Z,99.90
2023-02-26T05:53:02.928Z,99.90
2023-02-26T05:58:04.754Z,99.90
2023-02-26T06:03:06.665Z,99.90
2023-02-26T06:08:08.622Z,99.90
2023-02-26T06:13:10.507Z,99.90
2023-02-26T06:18:12.400Z,99.90
2023-02-26T06:23:17.359Z,99.90
2023-02-26T06:28:19.946Z,99.90
2023-02-26T06:33:21.821Z,99.90
2023-02-26T06:38:23.956Z,99.90
2023-02-26T06:43:26.008Z,99.90
2023-02-26T06:48:28.320Z,99.90
2023-02-26T06:53:30.331Z,99.90
2023-02-26T06:58:32.286Z,99.90
2023-02-26T07:03:34.090Z,99.90
2023-02-26T07:08:36.409Z,99.90
2023-02-26T07:13:38.280Z,99.90
2023-02-26T07:18:40.328Z,99.70
2023-02-26T07:23:42.225Z,98.90
2023-02-26T07:28:44.168Z,97.60
2023-02-26T07:33:46.018Z,96.10
2023-02-26T07:38:47.971Z,95.20
2023-02-26T07:43:50.060Z,94.80
2023-02-26T07:48:51.860Z,93.80
2023-02-26T07:53:53.676Z,93.30
2023-02-26T07:58:56.046Z,92.70
2023-02-26T08:03:57.844Z,93.10
2023-02-26T08:08:59.722Z,92.70
2023-02-26T08:14:01.509Z,90.20
2023-02-26T08:19:03.377Z,87.30
2023-02-26T08:24:05.572Z,86.50
2023-02-26T08:29:08.152Z,83.60
2023-02-26T08:34:10.015Z,83.90
2023-02-26T08:39:11.893Z,83.90
2023-02-26T08:44:13.690Z,85.10
2023-02-26T08:49:15.500Z,86.10
2023-02-26T08:54:17.319Z,84.40
2023-02-26T08:59:19.396Z,83.90
2023-02-26T09:04:21.265Z,82.10
2023-02-26T09:09:23.125Z,82.80
2023-02-26T09:14:24.973Z,81.20
2023-02-26T09:19:26.955Z,79.60
2023-02-26T09:24:28.815Z,76.30
2023-02-26T09:29:30.781Z,75.70
2023-02-26T09:34:32.648Z,71.40
2023-02-26T09:39:35.448Z,69.50
2023-02-26T09:44:38.601Z,69.20
2023-02-26T09:49:55.950Z,69.70
2023-02-26T09:55:05.205Z,67.90
2023-02-26T10:00:24.844Z,70.40
2023-02-26T10:05:39.701Z,72.70
2023-02-26T10:11:08.595Z,67.30
2023-02-26T10:16:17.086Z,68.70
2023-02-26T10:21:30.393Z,68.70
2023-02-26T10:27:10.732Z,71.00
2023-02-26T10:32:24.156Z,68.90
2023-02-26T10:37:48.517Z,70.90
2023-02-26T10:42:58.370Z,70.30
2023-02-26T10:48:13.940Z,71.80
2023-02-26T10:53:15.816Z,70.90
2023-02-26T10:58:21.371Z,67.30
2023-02-26T11:03:39.377Z,67.20
2023-02-26T11:08:44.146Z,68.00
2023-02-26T11:13:48.737Z,69.80
2023-02-26T11:18:54.509Z,71.40
2023-02-26T11:24:05.428Z,71.30
2023-02-26T11:29:07.421Z,75.00
2023-02-26T11:34:11.966Z,76.90
2023-02-26T11:39:13.728Z,76.50
2023-02-26T11:44:18.688Z,76.10
2023-02-26T11:49:25.748Z,75.90
2023-02-26T11:54:29.169Z,76.50
2023-02-26T11:59:32.208Z,74.80
2023-02-26T12:04:34.106Z,76.50
2023-02-26T12:09:37.891Z,75.80
2023-02-26T12:15:11.224Z,74.80
2023-02-26T12:20:51.781Z,74.90
2023-02-26T12:26:00.148Z,74.50
2023-02-26T12:31:15.698Z,72.30
2023-02-26T12:36:36.326Z,72.70
2023-02-26T12:42:03.841Z,73.80
2023-02-26T12:47:25.860Z,73.00
2023-02-26T12:52:31.131Z,74.20
2023-02-26T12:58:01.868Z,74.70
2023-02-26T13:03:40.432Z,71.30
2023-02-26T13:08:51.083Z,73.00
2023-02-26T13:14:03.234Z,73.80
2023-02-26T13:19:20.653Z,72.20
2023-02-26T13:24:27.363Z,70.70
2023-02-26T13:29:34.013Z,71.10
2023-02-26T13:34:58.609Z,71.80
2023-02-26T13:40:12.690Z,71.90
2023-02-26T13:45:40.734Z,72.30
2023-02-26T13:51:07.467Z,71.70
2023-02-26T13:56:21.336Z,75.10
2023-02-26T14:01:35.767Z,79.20
2023-02-26T14:06:43.730Z,81.80
2023-02-26T14:11:59.671Z,82.40
2023-02-26T14:17:08.412Z,83.40
2023-02-26T14:22:21.095Z,82.50
2023-02-26T14:27:30.781Z,81.80
2023-02-26T14:32:56.303Z,80.00
2023-02-26T14:38:22.475Z,78.70
2023-02-26T14:43:35.821Z,79.20
2023-02-26T14:48:38.785Z,78.70
2023-02-26T14:54:22.312Z,77.30
2023-02-26T14:59:35.086Z,78.10
2023-02-26T15:05:11.704Z,78.00
2023-02-26T15:10:24.665Z,78.40
2023-02-26T15:15:35.268Z,78.80
2023-02-26T15:20:44.147Z,78.90
2023-02-26T15:25:47.520Z,78.90
2023-02-26T15:30:49.684Z,79.00
2023-02-26T15:35:53.513Z,78.90
2023-02-26T15:41:00.524Z,78.50
2023-02-26T15:46:03.612Z,77.20
2023-02-26T15:51:08.494Z,78.60
2023-02-26T15:56:30.450Z,79.00
2023-02-26T16:01:32.928Z,79.60
2023-02-26T16:06:37.700Z,80.30
2023-02-26T16:11:41.421Z,80.30
2023-02-26T16:16:51.975Z,78.60
2023-02-26T16:21:55.236Z,77.80
2023-02-26T16:27:01.885Z,77.60
2023-02-26T16:32:05.211Z,78.20
2023-02-26T16:37:22.418Z,78.00
2023-02-26T16:42:36.823Z,75.30
2023-02-26T16:47:40.286Z,73.80
2023-02-26T16:52:42.333Z,75.00
2023-02-26T16:57:45.590Z,74.30
2023-02-26T17:02:48.771Z,75.10
2023-02-26T17:08:13.690Z,75.70
2023-02-26T17:13:24.928Z,76.00
2023-02-26T17:18:26.894Z,75.50
2023-02-26T17:23:31.210Z,76.00
2023-02-26T17:28:36.079Z,76.60
2023-02-26T17:33:40.512Z,77.10
2023-02-26T17:38:46.988Z,77.30
2023-02-26T17:43:48.832Z,78.00
2023-02-26T17:48:50.619Z,79.10
2023-02-26T17:53:54.535Z,78.70
2023-02-26T17:58:57.837Z,79.00
2023-02-26T18:04:01.074Z,79.30
2023-02-26T18:09:07.960Z,79.80
2023-02-26T18:14:11.046Z,80.60
2023-02-26T18:19:15.037Z,80.40
2023-02-26T18:24:16.909Z,80.70
2023-02-26T18:29:18.955Z,81.00
2023-02-26T18:34:20.740Z,81.80
2023-02-26T18:39:25.051Z,82.30
2023-02-26T18:44:28.511Z,82.50
2023-02-26T18:49:30.502Z,83.20
2023-02-26T18:54:32.340Z,83.40
2023-02-26T18:59:34.313Z,83.80
2023-02-26T19:04:36.453Z,84.20
2023-02-26T19:09:38.405Z,83.80
2023-02-26T19:14:40.244Z,83.60
2023-02-26T19:19:42.478Z,83.60
2023-02-26T19:24:44.612Z,84.30
2023-02-26T19:29:46.618Z,84.70
2023-02-26T19:34:48.407Z,85.90
2023-02-26T19:39:50.295Z,85.50
2023-02-26T19:44:52.421Z,85.70
2023-02-26T19:49:54.218Z,85.80
2023-02-26T19:54:56.098Z,86.00
2023-02-26T19:59:59.573Z,85.90
2023-02-26T20:05:01.366Z,85.40
2023-02-26T20:10:10.287Z,85.30
2023-02-26T20:15:12.507Z,85.10
2023-02-26T20:20:14.439Z,85.20
2023-02-26T20:25:16.403Z,85.10
2023-02-26T20:30:19.099Z,85.10
2023-02-26T20:35:20.961Z,85.10
2023-02-26T20:40:23.016Z,84.90
2023-02-26T20:45:24.800Z,84.80
2023-02-26T20:50:27.514Z,84.70
2023-02-26T20:55:29.383Z,84.50
2023-02-26T21:00:31.740Z,84.50
2023-02-26T21:05:35.254Z,84.80
2023-02-26T21:10:37.112Z,84.50
2023-02-26T21:15:38.966Z,84.60
2023-02-26T21:20:40.784Z,84.80
2023-02-26T21:25:42.704Z,84.90
2023-02-26T21:30:44.589Z,85.20
2023-02-26T21:35:51.611Z,85.20
2023-02-26T21:40:54.375Z,85.70
2023-02-26T21:45:56.221Z,85.80
2023-02-26T21:50:59.746Z,86.20
2023-02-26T21:56:02.113Z,86.60
2023-02-26T22:01:04.893Z,86.80
2023-02-26T22:06:06.893Z,87.10
2023-02-26T22:11:08.792Z,87.50
2023-02-26T22:16:10.865Z,87.60
2023-02-26T22:21:12.672Z,87.80
2023-02-26T22:26:14.476Z,88.10
2023-02-26T22:31:16.327Z,88.30
2023-02-26T22:36:18.180Z,88.60
2023-02-26T22:41:20.097Z,88.80
2023-02-26T22:46:24.563Z,89.20
2023-02-26T22:51:29.402Z,89.00
2023-02-26T22:56:31.881Z,89.60
2023-02-26T23:01:33.852Z,90.00
2023-02-26T23:06:36.617Z,90.20
2023-02-26T23:11:38.545Z,90.10
2023-02-26T23:16:40.751Z,90.40
2023-02-26T23:21:42.524Z,90.60
2023-02-26T23:26:44.907Z,90.60
2023-02-26T23:31:46.886Z,90.90
2023-02-26T23:36:48.894Z,91.10
2023-02-26T23:41:50.752Z,91.20
2023-02-26T23:46:52.960Z,91.30
2023-02-26T23:51:54.982Z,91.40
2023-02-26T23:56:56.838Z,91.50
